aviador You're here:

GMFK Decoded Metar

ER-RACHIDIA in MOROCCO
Report Time2017-08-18 14:00:00
UTC Time2017-08-18 14:27:26
Flight Rules vfr VFR
Wind150° at 06 kt
W.Decomp.*RWY 13: 5.6 kt HW 2.2 kt RCW
W.Rank150° ranks 26
Current wind is above 150° avg. (5.6)
Visibility9999 m
Phenomena:N/A
Clouds:Few 030 Hf
Expected CloudBase > 14,800 ft AGL from Temp-Dew spread
CeilingNone
Temp40°C (ISA +32)
Dew Point03°C (10% RH)
Heat Index37.0°C
AAT36.3°C
QNH1019 hPa
Density Alt6,873 ft
Elevation3,428 ft
Report Wrong Elevation
Raw Report
METAR GMFK 181400Z 15006KT 050V210 9999 FEW030 40/03 Q1019 NOSIG=

Extra information for GMFK:More info

Metar Taf Metar & Taf Last 4 Metars F.Rules Stats Wind Profile Meteogram Temp Stats Airport Information Weather charts Add Link Nearby VenuesMetar ALERT Operation Metar Decoded Social comments